KTDF

Person County Airport

Roxboro, North Carolina, USA
METAR KTDF 190845Z AUTO 00000KT 7SM CLR 17/17 A2995 RMK AO2
Observed Flight Rules
Sep-19 @ 08:45 UTC (20 minutes ago) Visual Flight Rules
Visibility Clouds
7 miles
  • Clear skies
Temperatures Readings
Current 17°C / 63°F
Dewpoint 17°C / 63°F
Humidity 100%
Altimeter 29.95" Hg
Pressure 1014 hPa
Elevation 186
METAR KTDF 190845Z AUTO 00000KT 7SM CLR 17/17 A2995 RMK AO2
Observed Flight Rules
Sep-19 @ 08:45 UTC
(20 minutes ago)
VFR
Clouds
  • Clear skies
Temperature Dewpoint
17°C / 63°F 17°C / 63°F
Humidity Altimeter Pressure
100% 29.95" Hg 1014 hPa